Terminal Aerodrome Forecast
Issued by NWS

Home | Current Version | Previous Version | Text Only | Print | Product List | Glossary On
Versions: 1 2 3 4 5 6 7 8 9 10 11 12 13 14 15 16 17 18 19 20
701
FTUS43 KGRR 191957 AAA
TAFMKG
TAF AMD
KMKG 191957Z 1920/2018 07007KT P6SM BKN035
     FM200600 VRB03KT 4SM BR OVC015
     FM200900 VRB03KT 2SM BR OVC008
     FM201100 13004KT 1SM BR OVC004
     FM201400 15007KT 4SM BR OVC012
     FM201600 16008KT P6SM BKN035=

USA.gov is the U.S. government's official web portal to all federal, state and local government web resources and services.